createdAt,value
2022-11-16T00:02:17.651Z,100139.88
2022-11-16T00:04:44.158Z,100129.16
2022-11-16T00:07:10.724Z,100123.22
2022-11-16T00:09:37.241Z,100126.03
2022-11-16T00:12:06.045Z,100121.38
2022-11-16T00:14:34.899Z,100124.03
2022-11-16T00:17:01.900Z,100118.22
2022-11-16T00:19:28.654Z,100114.22
2022-11-16T00:21:55.069Z,100130.44
2022-11-16T00:24:22.822Z,100116.56
2022-11-16T00:26:50.085Z,100113.88
2022-11-16T00:29:19.787Z,100119.31
2022-11-16T00:31:46.937Z,100113.94
2022-11-16T00:34:13.777Z,100112.09
2022-11-16T00:36:40.226Z,100113.19
2022-11-16T00:39:06.739Z,100105.69
2022-11-16T00:41:33.201Z,100109.34
2022-11-16T00:43:59.682Z,100113.22
2022-11-16T00:46:26.102Z,100097.84
2022-11-16T00:48:52.578Z,100099.94
2022-11-16T00:51:19.081Z,100099.31
2022-11-16T00:53:45.594Z,100105.25
2022-11-16T00:56:12.022Z,100101.00
2022-11-16T00:58:38.619Z,100091.34
2022-11-16T01:01:06.800Z,100091.53
2022-11-16T01:03:34.703Z,100094.41
2022-11-16T01:06:06.782Z,100097.38
2022-11-16T01:08:33.993Z,100091.41
2022-11-16T01:11:20.573Z,100084.31
2022-11-16T01:13:47.783Z,100079.69
2022-11-16T01:16:18.649Z,100077.63
2022-11-16T01:18:48.903Z,100068.34
2022-11-16T01:21:15.555Z,100074.94
2022-11-16T01:23:41.961Z,100078.50
2022-11-16T01:26:08.378Z,100070.53
2022-11-16T01:28:35.061Z,100075.19
2022-11-16T01:31:01.757Z,100072.69
2022-11-16T01:33:28.754Z,100069.47
2022-11-16T01:35:55.317Z,100058.22
2022-11-16T01:38:25.922Z,100061.03
2022-11-16T01:40:55.045Z,100060.94
2022-11-16T01:43:25.600Z,100059.28
2022-11-16T01:45:52.091Z,100054.75
2022-11-16T01:48:26.684Z,100046.09
2022-11-16T01:50:53.977Z,100055.09
2022-11-16T01:53:20.553Z,100043.72
2022-11-16T01:55:47.506Z,100042.41
2022-11-16T01:58:17.561Z,100042.03
2022-11-16T02:00:44.095Z,100031.28
2022-11-16T02:03:10.569Z,100051.31
2022-11-16T02:06:09.851Z,100040.47
2022-11-16T02:08:57.811Z,100044.44
2022-11-16T02:11:53.895Z,100034.16
2022-11-16T02:14:39.107Z,100027.25
2022-11-16T02:17:07.975Z,100029.44
2022-11-16T02:19:46.442Z,100024.06
2022-11-16T02:22:29.796Z,100019.97
2022-11-16T02:25:03.650Z,100030.25
2022-11-16T02:27:51.870Z,100020.97
2022-11-16T02:30:18.801Z,100026.19
2022-11-16T02:32:56.344Z,100013.16
2022-11-16T02:35:34.247Z,100017.50
2022-11-16T02:38:06.641Z,100019.41
2022-11-16T02:40:35.323Z,100013.69
2022-11-16T02:43:10.039Z,100021.38
2022-11-16T02:45:39.865Z,100021.75
2022-11-16T02:48:10.628Z,100011.25
2022-11-16T02:50:38.158Z,100011.84
2022-11-16T02:53:04.629Z,100024.34
2022-11-16T02:55:32.965Z,100010.53
2022-11-16T02:58:01.369Z,100005.09
2022-11-16T03:00:48.221Z,100010.19
2022-11-16T03:03:25.776Z,100012.13
2022-11-16T03:06:01.634Z,100010.53
2022-11-16T03:08:34.255Z,100012.25
2022-11-16T03:11:27.297Z,100019.25
2022-11-16T03:14:05.981Z,100015.00
2022-11-16T03:16:35.151Z,100020.81
2022-11-16T03:19:04.781Z,100028.31
2022-11-16T03:21:41.729Z,100028.63
2022-11-16T03:24:08.653Z,100023.97
2022-11-16T03:26:58.440Z,100027.06
2022-11-16T03:29:33.276Z,100025.88
2022-11-16T03:32:41.674Z,100033.75
2022-11-16T03:35:14.556Z,100019.06
2022-11-16T03:37:41.193Z,100012.06
2022-11-16T03:40:09.096Z,100014.38
2022-11-16T03:42:36.006Z,100018.91
2022-11-16T03:45:03.613Z,100009.72
2022-11-16T03:47:30.352Z,100015.00
2022-11-16T03:49:56.809Z,100006.13
2022-11-16T03:52:23.411Z,100005.00
2022-11-16T03:54:49.804Z,100001.69
2022-11-16T03:57:18.405Z,100005.16
2022-11-16T03:59:45.165Z,100003.47
2022-11-16T04:02:11.931Z,99999.03
2022-11-16T04:04:57.033Z,99984.16
2022-11-16T04:07:41.810Z,99990.09
2022-11-16T04:10:28.344Z,99999.28
2022-11-16T04:13:13.815Z,99984.31
2022-11-16T04:15:58.745Z,99991.97
2022-11-16T04:18:43.644Z,99983.91
2022-11-16T04:21:40.873Z,99990.72
2022-11-16T04:24:15.142Z,99991.91
2022-11-16T04:27:02.894Z,99987.19
2022-11-16T04:29:29.735Z,99985.63
2022-11-16T04:32:14.879Z,99987.94
2022-11-16T04:34:59.853Z,99991.91
2022-11-16T04:37:44.598Z,99980.59
2022-11-16T04:40:11.605Z,99983.84
2022-11-16T04:42:38.010Z,99967.88
2022-11-16T04:45:23.835Z,99965.50
2022-11-16T04:47:51.153Z,99970.84
2022-11-16T04:50:18.718Z,99978.72
2022-11-16T04:52:45.622Z,99968.84
2022-11-16T04:55:12.933Z,99957.03
2022-11-16T04:57:39.853Z,99959.69
2022-11-16T05:00:07.328Z,99954.88
2022-11-16T05:02:33.738Z,99978.34
2022-11-16T05:05:00.124Z,99967.44
2022-11-16T05:07:26.644Z,99970.56
2022-11-16T05:09:53.100Z,99967.50
2022-11-16T05:12:24.368Z,99956.69
2022-11-16T05:14:51.087Z,99975.22
2022-11-16T05:17:18.818Z,99966.59
2022-11-16T05:20:03.911Z,99959.91
2022-11-16T05:22:30.390Z,99963.72
2022-11-16T05:24:56.948Z,99959.94
2022-11-16T05:27:24.710Z,99956.19
2022-11-16T05:29:51.378Z,99959.94
2022-11-16T05:32:19.493Z,99970.56
2022-11-16T05:34:46.298Z,99960.63
2022-11-16T05:37:13.073Z,99954.44
2022-11-16T05:39:39.922Z,99958.03
2022-11-16T05:42:07.027Z,99959.34
2022-11-16T05:44:33.548Z,99948.25
2022-11-16T05:47:00.145Z,99959.69
2022-11-16T05:49:27.026Z,99953.22
2022-11-16T05:51:53.683Z,99960.59
2022-11-16T05:54:22.228Z,99958.72
2022-11-16T05:56:49.496Z,99962.56
2022-11-16T05:59:17.535Z,99957.75
2022-11-16T06:01:44.346Z,99959.47
2022-11-16T06:04:10.898Z,99956.47
2022-11-16T06:06:37.776Z,99963.31
2022-11-16T06:09:04.457Z,99966.59
2022-11-16T06:11:35.850Z,99967.75
2022-11-16T06:14:03.120Z,99962.47
2022-11-16T06:16:29.827Z,99968.41
2022-11-16T06:18:56.346Z,99971.41
2022-11-16T06:21:23.207Z,99966.06
2022-11-16T06:23:49.758Z,99969.59
2022-11-16T06:26:16.246Z,99969.13
2022-11-16T06:28:42.808Z,99971.78
2022-11-16T06:31:09.482Z,99973.59
2022-11-16T06:33:35.922Z,99982.19
2022-11-16T06:36:02.495Z,99983.75
2022-11-16T06:38:28.975Z,99985.19
2022-11-16T06:40:57.557Z,99974.84
2022-11-16T06:43:24.832Z,99979.84
2022-11-16T06:45:53.401Z,99982.50
2022-11-16T06:48:20.268Z,99981.16
2022-11-16T06:50:50.776Z,99976.88
2022-11-16T06:53:17.780Z,99989.13
2022-11-16T06:55:44.518Z,99990.22
2022-11-16T06:58:11.061Z,99984.63
2022-11-16T07:00:37.750Z,99989.41
2022-11-16T07:03:04.507Z,99983.53
2022-11-16T07:05:31.918Z,99988.78
2022-11-16T07:07:58.443Z,99991.16
2022-11-16T07:10:25.198Z,99984.00
2022-11-16T07:12:51.935Z,99986.53
2022-11-16T07:15:19.357Z,99988.03
2022-11-16T07:17:46.041Z,99990.41
2022-11-16T07:20:12.507Z,100007.31
2022-11-16T07:22:38.961Z,100008.47
2022-11-16T07:25:06.124Z,100013.47
2022-11-16T07:27:32.738Z,100014.38
2022-11-16T07:30:00.030Z,100020.06
2022-11-16T07:32:26.535Z,100029.81
2022-11-16T07:34:52.935Z,100030.88
2022-11-16T07:37:19.336Z,100030.72
2022-11-16T07:39:45.740Z,100041.81
2022-11-16T07:42:12.361Z,100039.09
2022-11-16T07:44:39.167Z,100042.59
2022-11-16T07:47:06.165Z,100042.59
2022-11-16T07:49:32.558Z,100041.81
2022-11-16T07:51:59.195Z,100041.84
2022-11-16T07:54:25.640Z,100048.22
2022-11-16T07:56:54.777Z,100046.13
2022-11-16T07:59:21.175Z,100056.28
2022-11-16T08:01:48.281Z,100054.06
2022-11-16T08:04:15.449Z,100065.59
2022-11-16T08:06:41.883Z,100049.13
2022-11-16T08:09:09.127Z,100065.66
2022-11-16T08:11:35.547Z,100063.72
2022-11-16T08:14:02.008Z,100066.25
2022-11-16T08:16:28.668Z,100073.50
2022-11-16T08:18:55.131Z,100070.38
2022-11-16T08:21:21.584Z,100073.16
2022-11-16T08:23:48.117Z,100079.97
2022-11-16T08:26:17.086Z,100090.81
2022-11-16T08:28:44.985Z,100079.09
2022-11-16T08:31:15.068Z,100081.34
2022-11-16T08:33:41.671Z,100079.22
2022-11-16T08:36:13.964Z,100075.84
2022-11-16T08:38:40.860Z,100069.69
2022-11-16T08:41:07.417Z,100079.34
2022-11-16T08:43:33.947Z,100082.47
2022-11-16T08:46:00.751Z,100084.56
2022-11-16T08:48:27.393Z,100092.50
2022-11-16T08:51:16.548Z,100099.63
2022-11-16T08:53:40.385Z,100096.81
2022-11-16T08:56:14.482Z,100090.84
2022-11-16T08:58:46.844Z,100091.59
2022-11-16T09:01:16.551Z,100091.44
2022-11-16T09:03:43.551Z,100101.38
2022-11-16T09:06:10.714Z,100105.09
2022-11-16T09:08:38.869Z,100096.34
2022-11-16T09:11:06.993Z,100097.69
2022-11-16T09:13:33.700Z,100104.41
2022-11-16T09:16:00.766Z,100106.19
2022-11-16T09:18:27.681Z,100097.25
2022-11-16T09:20:54.339Z,100103.69
2022-11-16T09:23:25.021Z,100102.75
2022-11-16T09:25:52.086Z,100102.63
2022-11-16T09:28:19.617Z,100107.97
2022-11-16T09:30:48.312Z,100120.59
2022-11-16T09:33:14.757Z,100122.56
2022-11-16T09:35:42.598Z,100117.03
2022-11-16T09:38:16.030Z,100112.97
2022-11-16T09:40:46.976Z,100118.06
2022-11-16T09:43:28.454Z,100124.31
2022-11-16T09:46:23.105Z,100121.06
2022-11-16T09:48:50.137Z,100115.41
2022-11-16T09:51:18.458Z,100110.72
2022-11-16T09:53:52.269Z,100126.53
2022-11-16T09:56:23.571Z,100122.25
2022-11-16T09:58:56.560Z,100120.63
2022-11-16T10:01:34.945Z,100126.69
2022-11-16T10:04:29.405Z,100120.97
2022-11-16T10:07:01.746Z,100125.25
2022-11-16T10:09:29.640Z,100126.25
2022-11-16T10:12:23.100Z,100128.44
2022-11-16T10:14:52.356Z,100129.50
2022-11-16T10:17:37.186Z,100131.44
2022-11-16T10:20:06.515Z,100136.84
2022-11-16T10:22:41.947Z,100131.13
2022-11-16T10:25:16.963Z,100129.84
2022-11-16T10:28:02.267Z,100134.31
2022-11-16T10:30:29.078Z,100125.44
2022-11-16T10:33:03.600Z,100113.13
2022-11-16T10:35:43.342Z,100117.47
2022-11-16T10:38:15.448Z,100123.81
2022-11-16T10:40:44.778Z,100120.66
2022-11-16T10:43:14.167Z,100125.16
2022-11-16T10:45:43.557Z,100124.03
2022-11-16T10:48:37.320Z,100123.75
2022-11-16T10:51:08.475Z,100125.22
2022-11-16T10:53:43.789Z,100125.28
2022-11-16T10:56:30.699Z,100130.50
2022-11-16T10:59:13.828Z,100121.19
2022-11-16T11:01:44.048Z,100127.19
2022-11-16T11:04:28.246Z,100122.31
2022-11-16T11:07:00.069Z,100119.94
2022-11-16T11:09:28.510Z,100115.50
2022-11-16T11:12:33.224Z,100119.00
2022-11-16T11:15:11.722Z,100118.38
2022-11-16T11:17:43.441Z,100112.59
2022-11-16T11:20:22.741Z,100107.25
2022-11-16T11:22:55.507Z,100112.06
2022-11-16T11:25:23.913Z,100109.72
2022-11-16T11:27:52.867Z,100115.44
2022-11-16T11:30:22.610Z,100110.78
2022-11-16T11:32:49.155Z,100114.88
2022-11-16T11:35:30.135Z,100110.66
2022-11-16T11:38:03.360Z,100121.81
2022-11-16T11:40:33.838Z,100111.94
2022-11-16T11:43:02.547Z,100109.09
2022-11-16T11:45:34.929Z,100104.31
2022-11-16T11:48:03.398Z,100107.06
2022-11-16T11:50:50.165Z,100109.59
2022-11-16T11:53:37.639Z,100110.59
2022-11-16T11:56:04.446Z,100105.38
2022-11-16T11:58:35.585Z,100103.25
2022-11-16T12:01:08.246Z,100107.41
2022-11-16T12:04:11.353Z,100109.44
2022-11-16T12:06:56.202Z,100108.84
2022-11-16T12:09:31.819Z,100111.91
2022-11-16T12:12:14.359Z,100107.91
2022-11-16T12:14:47.703Z,100105.16
2022-11-16T12:17:20.109Z,100108.13
2022-11-16T12:20:08.245Z,100102.91
2022-11-16T12:23:22.880Z,100111.84
2022-11-16T12:25:58.563Z,100106.38
2022-11-16T12:28:37.306Z,100103.66
2022-11-16T12:31:33.231Z,100108.34
2022-11-16T12:34:22.151Z,100096.22
2022-11-16T12:36:54.714Z,100098.28
2022-11-16T12:39:34.629Z,100097.34
2022-11-16T12:42:20.073Z,100096.81
2022-11-16T12:45:12.624Z,100102.91
2022-11-16T12:48:08.788Z,100111.09
2022-11-16T12:50:35.212Z,100106.31
2022-11-16T12:53:23.183Z,100114.53
2022-11-16T12:56:02.404Z,100099.25
2022-11-16T12:59:02.304Z,100114.66
2022-11-16T13:01:45.801Z,100106.31
2022-11-16T13:04:26.002Z,100115.56
2022-11-16T13:07:00.661Z,100108.06
2022-11-16T13:09:30.261Z,100117.06
2022-11-16T13:11:59.109Z,100112.06
2022-11-16T13:14:28.115Z,100108.19
2022-11-16T13:16:55.049Z,100109.84
2022-11-16T13:19:24.406Z,100104.81
2022-11-16T13:22:07.447Z,100109.06
2022-11-16T13:24:55.470Z,100111.25
2022-11-16T13:27:31.097Z,100104.75
2022-11-16T13:30:14.964Z,100109.59
2022-11-16T13:32:59.152Z,100104.41
2022-11-16T13:35:25.938Z,100105.75
2022-11-16T13:37:52.406Z,100101.38
2022-11-16T13:40:29.348Z,100095.56
2022-11-16T13:42:58.754Z,100101.91
2022-11-16T13:45:27.729Z,100089.84
2022-11-16T13:47:59.476Z,100091.00
2022-11-16T13:50:37.928Z,100093.97
2022-11-16T13:56:02.221Z,100084.78
2022-11-16T13:58:30.300Z,100084.94
2022-11-16T14:01:10.897Z,100090.59
2022-11-16T14:03:39.568Z,100096.97
2022-11-16T14:06:24.139Z,100098.16
2022-11-16T14:08:55.364Z,100091.00
2022-11-16T14:11:31.918Z,100096.72
2022-11-16T14:14:01.246Z,100087.81
2022-11-16T14:16:29.035Z,100094.94
2022-11-16T14:19:00.394Z,100092.28
2022-11-16T14:21:48.941Z,100094.56
2022-11-16T14:24:36.983Z,100101.13
2022-11-16T14:27:09.510Z,100101.81
2022-11-16T14:29:42.179Z,100100.56
2022-11-16T14:32:19.012Z,100100.03
2022-11-16T14:34:48.326Z,100105.00
2022-11-16T14:37:32.963Z,100106.53
2022-11-16T14:40:19.223Z,100110.09
2022-11-16T14:43:15.260Z,100098.56
2022-11-16T14:45:40.938Z,100111.41
2022-11-16T14:48:21.446Z,100107.00
2022-11-16T14:51:03.568Z,100092.81
2022-11-16T14:53:30.768Z,100096.06
2022-11-16T14:56:09.514Z,100105.19
2022-11-16T14:58:36.296Z,100101.59
2022-11-16T15:01:06.472Z,100094.25
2022-11-16T15:03:43.282Z,100093.66
2022-11-16T15:06:09.843Z,100100.25
2022-11-16T15:08:44.938Z,100091.72
2022-11-16T15:11:22.464Z,100100.16
2022-11-16T15:13:49.195Z,100094.31
2022-11-16T15:16:18.796Z,100097.88
2022-11-16T15:18:59.151Z,100092.13
2022-11-16T15:21:26.227Z,100092.97
2022-11-16T15:24:23.578Z,100104.88
2022-11-16T15:26:39.284Z,100100.78
2022-11-16T15:29:05.864Z,100102.50
2022-11-16T15:31:34.398Z,100108.09
2022-11-16T15:34:01.529Z,100110.09
2022-11-16T15:36:40.750Z,100102.97
2022-11-16T15:39:19.262Z,100107.84
2022-11-16T15:41:46.215Z,100104.81
2022-11-16T15:44:23.174Z,100110.47
2022-11-16T15:46:54.380Z,100099.84
2022-11-16T15:49:30.311Z,100105.66
2022-11-16T15:52:00.630Z,100104.19
2022-11-16T15:54:29.549Z,100102.13
2022-11-16T15:56:58.195Z,100103.66
2022-11-16T15:59:32.089Z,100099.28
2022-11-16T16:01:58.877Z,100099.28
2022-11-16T16:04:25.968Z,100102.47
2022-11-16T16:06:57.325Z,100103.75
2022-11-16T16:09:38.662Z,100108.16
2022-11-16T16:12:26.825Z,100096.88
2022-11-16T16:15:22.874Z,100096.91
2022-11-16T16:17:52.622Z,100097.00
2022-11-16T16:20:22.035Z,100090.94
2022-11-16T16:22:48.952Z,100095.31
2022-11-16T16:25:33.491Z,100092.72
2022-11-16T16:28:00.866Z,100095.22
2022-11-16T16:30:31.528Z,100101.13
2022-11-16T16:32:58.129Z,100107.13
2022-11-16T16:35:25.721Z,100117.53
2022-11-16T16:37:57.473Z,100101.81
2022-11-16T16:40:24.027Z,100078.78
2022-11-16T16:42:50.955Z,100095.31
2022-11-16T16:45:21.102Z,100092.91
2022-11-16T16:47:47.998Z,100084.88
2022-11-16T16:50:14.489Z,100091.25
2022-11-16T16:52:42.233Z,100090.56
2022-11-16T16:55:08.978Z,100096.22
2022-11-16T16:57:35.509Z,100104.88
2022-11-16T17:00:02.140Z,100111.22
2022-11-16T17:02:28.697Z,100111.78
2022-11-16T17:04:55.098Z,100110.91
2022-11-16T17:07:21.728Z,100101.63
2022-11-16T17:09:48.547Z,100100.97
2022-11-16T17:12:15.098Z,100089.63
2022-11-16T17:14:42.290Z,100098.59
2022-11-16T17:17:08.957Z,100102.09
2022-11-16T17:19:35.682Z,100096.44
2022-11-16T17:22:02.567Z,100084.00
2022-11-16T17:24:29.049Z,100094.31
2022-11-16T17:26:55.603Z,100084.72
2022-11-16T17:29:22.060Z,100086.00
2022-11-16T17:31:51.687Z,100082.38
2022-11-16T17:34:18.212Z,100085.13
2022-11-16T17:36:44.951Z,100089.28
2022-11-16T17:39:11.442Z,100083.13
2022-11-16T17:41:37.929Z,100080.44
2022-11-16T17:44:04.850Z,100086.00
2022-11-16T17:46:31.256Z,100080.53
2022-11-16T17:48:57.943Z,100068.94
2022-11-16T17:51:25.286Z,100078.59
2022-11-16T17:53:52.022Z,100087.69
2022-11-16T17:56:20.851Z,100092.28
2022-11-16T17:58:47.382Z,100085.69
2022-11-16T18:01:14.388Z,100094.75
2022-11-16T18:03:41.113Z,100099.91
2022-11-16T18:06:11.141Z,100098.41
2022-11-16T18:08:37.696Z,100101.13
2022-11-16T18:11:25.548Z,100096.03
2022-11-16T18:14:00.518Z,100094.91
2022-11-16T18:16:31.827Z,100089.63
2022-11-16T18:19:00.775Z,100100.56
2022-11-16T18:21:27.820Z,100094.91
2022-11-16T18:23:54.639Z,100100.50
2022-11-16T18:26:23.483Z,100091.25
2022-11-16T18:28:51.279Z,100094.31
2022-11-16T18:31:20.232Z,100086.97
2022-11-16T18:33:49.017Z,100088.63
2022-11-16T18:36:16.231Z,100086.50
2022-11-16T18:38:42.705Z,100085.19
2022-11-16T18:41:11.965Z,100078.88
2022-11-16T18:43:43.012Z,100082.97
2022-11-16T18:46:10.036Z,100091.91
2022-11-16T18:48:36.802Z,100078.06
2022-11-16T18:51:04.941Z,100094.88
2022-11-16T18:53:34.818Z,100082.22
2022-11-16T18:56:02.139Z,100074.47
2022-11-16T18:58:49.916Z,100064.22
2022-11-16T19:01:17.820Z,100054.41
2022-11-16T19:03:44.299Z,100051.16
2022-11-16T19:06:11.752Z,100058.00
2022-11-16T19:08:39.612Z,100074.94
2022-11-16T19:11:08.686Z,100072.28
2022-11-16T19:13:36.799Z,100071.19
2022-11-16T19:16:03.973Z,100058.88
2022-11-16T19:18:30.783Z,100055.31
2022-11-16T19:21:09.135Z,100046.03
2022-11-16T19:23:56.170Z,100042.19
2022-11-16T19:26:26.132Z,100040.66
2022-11-16T19:28:55.530Z,100038.31
2022-11-16T19:31:31.641Z,100037.16
2022-11-16T19:34:04.649Z,100043.03
2022-11-16T19:36:32.837Z,100039.38
2022-11-16T19:38:59.346Z,100041.78
2022-11-16T19:41:26.806Z,100054.22
2022-11-16T19:43:59.681Z,100039.97
2022-11-16T19:46:27.737Z,100049.28
2022-11-16T19:48:54.784Z,100041.38
2022-11-16T19:51:32.343Z,100043.38
2022-11-16T19:54:01.481Z,100039.03
2022-11-16T19:56:28.677Z,100032.31
2022-11-16T19:59:01.868Z,100025.19
2022-11-16T20:01:29.425Z,100023.59
2022-11-16T20:03:58.446Z,100021.38
2022-11-16T20:06:30.094Z,100038.09
2022-11-16T20:09:00.317Z,100034.53
2022-11-16T20:11:28.795Z,100040.22
2022-11-16T20:13:57.140Z,100033.31
2022-11-16T20:16:27.027Z,100026.00
2022-11-16T20:18:54.473Z,100031.47
2022-11-16T20:21:29.396Z,100044.38
2022-11-16T20:24:03.089Z,100030.72
2022-11-16T20:26:33.460Z,100013.50
2022-11-16T20:28:59.969Z,100018.91
2022-11-16T20:31:28.324Z,100022.00
2022-11-16T20:34:05.376Z,100020.78
2022-11-16T20:36:33.531Z,100023.13
2022-11-16T20:39:00.532Z,100024.44
2022-11-16T20:41:29.046Z,100018.16
2022-11-16T20:43:57.464Z,100013.91
2022-11-16T20:46:29.607Z,100020.19
2022-11-16T20:48:57.396Z,100018.16
2022-11-16T20:51:24.139Z,100030.03
2022-11-16T20:53:50.658Z,100018.75
2022-11-16T20:56:19.121Z,100018.28
2022-11-16T20:58:46.222Z,100010.00
2022-11-16T21:01:15.400Z,100013.84
2022-11-16T21:03:44.382Z,100017.31
2022-11-16T21:06:12.267Z,100010.13
2022-11-16T21:08:39.523Z,100012.34
2022-11-16T21:11:14.586Z,100020.34
2022-11-16T21:13:59.832Z,100012.75
2022-11-16T21:16:26.381Z,100011.19
2022-11-16T21:18:55.931Z,100019.94
2022-11-16T21:21:22.478Z,100008.75
2022-11-16T21:23:51.886Z,99986.81
2022-11-16T21:26:20.455Z,100019.03
2022-11-16T21:28:47.008Z,100015.56
2022-11-16T21:31:15.432Z,100008.38
2022-11-16T21:33:43.744Z,100019.69
2022-11-16T21:36:12.718Z,100015.53
2022-11-16T21:38:39.473Z,100020.97
2022-11-16T21:41:06.705Z,100007.25
2022-11-16T21:43:36.316Z,100003.09
2022-11-16T21:46:07.058Z,99995.66
2022-11-16T21:48:34.355Z,100009.50
2022-11-16T21:51:11.937Z,99996.66
2022-11-16T21:53:39.072Z,99984.53
2022-11-16T21:56:06.861Z,99971.72
2022-11-16T21:58:33.438Z,99984.41
2022-11-16T22:01:01.426Z,99979.94
2022-11-16T22:03:31.880Z,99969.09
2022-11-16T22:06:20.175Z,99994.63
2022-11-16T22:08:47.644Z,99984.47
2022-11-16T22:11:15.331Z,99987.31
2022-11-16T22:13:42.274Z,99972.84
2022-11-16T22:16:14.950Z,99974.09
2022-11-16T22:18:41.541Z,99958.63
2022-11-16T22:21:08.266Z,99959.47
2022-11-16T22:23:35.420Z,99954.84
2022-11-16T22:26:06.488Z,99943.09
2022-11-16T22:28:33.690Z,99953.59
2022-11-16T22:31:05.169Z,99950.25
2022-11-16T22:33:32.647Z,99946.75
2022-11-16T22:35:59.568Z,99959.28
2022-11-16T22:38:26.289Z,99954.78
2022-11-16T22:40:54.695Z,99955.03
2022-11-16T22:43:28.714Z,99950.06
2022-11-16T22:46:04.384Z,99941.81
2022-11-16T22:48:32.838Z,99953.06
2022-11-16T22:51:04.858Z,99930.78
2022-11-16T22:53:31.555Z,99936.34
2022-11-16T22:56:05.851Z,99929.56
2022-11-16T22:58:32.283Z,99936.59
2022-11-16T23:00:58.748Z,99956.09
2022-11-16T23:03:25.191Z,99932.91
2022-11-16T23:05:51.909Z,99927.41
2022-11-16T23:08:18.383Z,99923.31
2022-11-16T23:11:03.512Z,99902.84
2022-11-16T23:13:48.644Z,99886.97
2022-11-16T23:16:15.158Z,99892.03
2022-11-16T23:18:41.616Z,99880.88
2022-11-16T23:21:40.851Z,99874.78
2022-11-16T23:24:33.687Z,99864.88
2022-11-16T23:27:21.497Z,99859.28
2022-11-16T23:29:48.015Z,99860.53
2022-11-16T23:32:14.483Z,99859.19
2022-11-16T23:34:40.881Z,99866.25
2022-11-16T23:37:08.018Z,99852.13
2022-11-16T23:39:34.505Z,99861.75
2022-11-16T23:42:19.542Z,99860.84
2022-11-16T23:44:46.152Z,99845.78
2022-11-16T23:47:12.646Z,99863.44
2022-11-16T23:49:39.154Z,99862.84
2022-11-16T23:52:05.854Z,99865.25
2022-11-16T23:54:32.269Z,99867.19
2022-11-16T23:56:58.753Z,99863.28
2022-11-16T23:59:25.266Z,99860.69
